sensor_id;sensor_type;location;lat;lon;timestamp;P1;durP1;ratioP1;P2;durP2;ratioP2
22713;SDS011;11524;50.846;4.326;2023-06-14T00:00:39;8.98;;;6.30;;
22713;SDS011;11524;50.846;4.326;2023-06-14T00:03:09;7.82;;;5.60;;
22713;SDS011;11524;50.846;4.326;2023-06-14T00:05:36;7.97;;;5.38;;
22713;SDS011;11524;50.846;4.326;2023-06-14T00:08:06;6.97;;;6.25;;
22713;SDS011;11524;50.846;4.326;2023-06-14T00:10:35;8.15;;;5.47;;
22713;SDS011;11524;50.846;4.326;2023-06-14T00:13:02;7.80;;;6.22;;
22713;SDS011;11524;50.846;4.326;2023-06-14T00:15:29;10.82;;;5.72;;
22713;SDS011;11524;50.846;4.326;2023-06-14T00:17:56;7.65;;;5.75;;
22713;SDS011;11524;50.846;4.326;2023-06-14T00:20:24;9.30;;;5.60;;
22713;SDS011;11524;50.846;4.326;2023-06-14T00:22:51;10.43;;;5.85;;
22713;SDS011;11524;50.846;4.326;2023-06-14T00:25:17;6.97;;;6.25;;
22713;SDS011;11524;50.846;4.326;2023-06-14T00:27:42;7.93;;;5.72;;
22713;SDS011;11524;50.846;4.326;2023-06-14T00:30:08;6.85;;;5.50;;
22713;SDS011;11524;50.846;4.326;2023-06-14T00:32:34;9.07;;;5.85;;
22713;SDS011;11524;50.846;4.326;2023-06-14T00:34:59;7.50;;;5.32;;
22713;SDS011;11524;50.846;4.326;2023-06-14T00:37:25;8.90;;;5.82;;
22713;SDS011;11524;50.846;4.326;2023-06-14T00:39:51;7.85;;;5.40;;
22713;SDS011;11524;50.846;4.326;2023-06-14T00:42:23;8.50;;;5.72;;
22713;SDS011;11524;50.846;4.326;2023-06-14T00:44:50;10.48;;;6.38;;
22713;SDS011;11524;50.846;4.326;2023-06-14T00:47:16;9.70;;;5.80;;
22713;SDS011;11524;50.846;4.326;2023-06-14T00:49:41;6.47;;;5.88;;
22713;SDS011;11524;50.846;4.326;2023-06-14T00:52:07;7.28;;;6.35;;
22713;SDS011;11524;50.846;4.326;2023-06-14T00:54:37;8.23;;;5.45;;
22713;SDS011;11524;50.846;4.326;2023-06-14T00:57:03;8.50;;;5.85;;
22713;SDS011;11524;50.846;4.326;2023-06-14T00:59:28;7.28;;;6.28;;
22713;SDS011;11524;50.846;4.326;2023-06-14T01:01:54;7.38;;;5.50;;
22713;SDS011;11524;50.846;4.326;2023-06-14T01:04:20;6.57;;;5.38;;
22713;SDS011;11524;50.846;4.326;2023-06-14T01:09:30;7.40;;;5.80;;
22713;SDS011;11524;50.846;4.326;2023-06-14T01:15:21;6.60;;;5.80;;
22713;SDS011;11524;50.846;4.326;2023-06-14T01:17:51;6.82;;;5.47;;
22713;SDS011;11524;50.846;4.326;2023-06-14T01:20:21;7.50;;;5.85;;
22713;SDS011;11524;50.846;4.326;2023-06-14T01:22:51;7.05;;;6.10;;
22713;SDS011;11524;50.846;4.326;2023-06-14T01:25:18;7.65;;;5.90;;
22713;SDS011;11524;50.846;4.326;2023-06-14T01:27:47;6.38;;;5.60;;
22713;SDS011;11524;50.846;4.326;2023-06-14T01:30:14;8.25;;;6.13;;
22713;SDS011;11524;50.846;4.326;2023-06-14T01:32:41;8.25;;;6.00;;
22713;SDS011;11524;50.846;4.326;2023-06-14T01:35:07;9.07;;;5.78;;
22713;SDS011;11524;50.846;4.326;2023-06-14T01:37:33;6.65;;;5.32;;
22713;SDS011;11524;50.846;4.326;2023-06-14T01:39:59;7.43;;;6.57;;
22713;SDS011;11524;50.846;4.326;2023-06-14T01:42:25;8.52;;;5.97;;
22713;SDS011;11524;50.846;4.326;2023-06-14T01:44:52;8.02;;;6.10;;
22713;SDS011;11524;50.846;4.326;2023-06-14T01:47:19;10.90;;;6.28;;
22713;SDS011;11524;50.846;4.326;2023-06-14T01:49:46;7.95;;;6.10;;
22713;SDS011;11524;50.846;4.326;2023-06-14T01:52:11;8.65;;;6.38;;
22713;SDS011;11524;50.846;4.326;2023-06-14T01:54:38;10.13;;;6.43;;
22713;SDS011;11524;50.846;4.326;2023-06-14T01:57:08;10.00;;;6.00;;
22713;SDS011;11524;50.846;4.326;2023-06-14T01:59:34;6.68;;;6.07;;
22713;SDS011;11524;50.846;4.326;2023-06-14T02:02:01;8.82;;;6.35;;
22713;SDS011;11524;50.846;4.326;2023-06-14T02:04:28;7.97;;;5.57;;
22713;SDS011;11524;50.846;4.326;2023-06-14T02:06:53;7.70;;;6.05;;
22713;SDS011;11524;50.846;4.326;2023-06-14T02:09:19;10.07;;;6.47;;
22713;SDS011;11524;50.846;4.326;2023-06-14T02:11:45;7.43;;;6.35;;
22713;SDS011;11524;50.846;4.326;2023-06-14T02:14:11;7.30;;;5.72;;
22713;SDS011;11524;50.846;4.326;2023-06-14T02:16:37;10.57;;;6.10;;
22713;SDS011;11524;50.846;4.326;2023-06-14T02:19:03;8.52;;;5.88;;
22713;SDS011;11524;50.846;4.326;2023-06-14T02:21:29;10.57;;;6.00;;
22713;SDS011;11524;50.846;4.326;2023-06-14T02:23:55;7.65;;;5.93;;
22713;SDS011;11524;50.846;4.326;2023-06-14T02:26:21;6.97;;;5.82;;
22713;SDS011;11524;50.846;4.326;2023-06-14T02:28:47;7.60;;;6.28;;
22713;SDS011;11524;50.846;4.326;2023-06-14T02:31:13;7.45;;;5.95;;
22713;SDS011;11524;50.846;4.326;2023-06-14T02:33:39;7.28;;;5.78;;
22713;SDS011;11524;50.846;4.326;2023-06-14T02:36:05;7.13;;;5.90;;
22713;SDS011;11524;50.846;4.326;2023-06-14T02:38:31;7.75;;;6.22;;
22713;SDS011;11524;50.846;4.326;2023-06-14T02:40:57;7.70;;;6.90;;
22713;SDS011;11524;50.846;4.326;2023-06-14T02:43:24;8.93;;;6.35;;
22713;SDS011;11524;50.846;4.326;2023-06-14T02:45:49;7.50;;;6.38;;
22713;SDS011;11524;50.846;4.326;2023-06-14T02:48:15;7.63;;;6.57;;
22713;SDS011;11524;50.846;4.326;2023-06-14T02:50:41;10.13;;;6.50;;
22713;SDS011;11524;50.846;4.326;2023-06-14T02:53:07;7.63;;;6.18;;
22713;SDS011;11524;50.846;4.326;2023-06-14T02:55:33;7.85;;;6.90;;
22713;SDS011;11524;50.846;4.326;2023-06-14T02:58:04;10.07;;;6.22;;
22713;SDS011;11524;50.846;4.326;2023-06-14T03:00:29;8.32;;;6.13;;
22713;SDS011;11524;50.846;4.326;2023-06-14T03:02:55;7.38;;;5.88;;
22713;SDS011;11524;50.846;4.326;2023-06-14T03:05:21;9.13;;;6.45;;
22713;SDS011;11524;50.846;4.326;2023-06-14T03:07:47;8.98;;;6.45;;
22713;SDS011;11524;50.846;4.326;2023-06-14T03:10:13;7.03;;;6.32;;
22713;SDS011;11524;50.846;4.326;2023-06-14T03:12:39;9.45;;;6.10;;
22713;SDS011;11524;50.846;4.326;2023-06-14T03:15:05;8.38;;;6.25;;
22713;SDS011;11524;50.846;4.326;2023-06-14T03:17:30;8.90;;;6.35;;
22713;SDS011;11524;50.846;4.326;2023-06-14T03:19:59;7.43;;;6.70;;
22713;SDS011;11524;50.846;4.326;2023-06-14T03:22:25;8.95;;;6.57;;
22713;SDS011;11524;50.846;4.326;2023-06-14T03:24:51;8.57;;;6.88;;
22713;SDS011;11524;50.846;4.326;2023-06-14T03:27:19;8.13;;;6.05;;
22713;SDS011;11524;50.846;4.326;2023-06-14T03:29:44;8.77;;;6.50;;
22713;SDS011;11524;50.846;4.326;2023-06-14T03:32:10;9.77;;;6.55;;
22713;SDS011;11524;50.846;4.326;2023-06-14T03:34:36;8.45;;;6.40;;
22713;SDS011;11524;50.846;4.326;2023-06-14T03:37:03;9.15;;;6.20;;
22713;SDS011;11524;50.846;4.326;2023-06-14T03:39:29;8.52;;;5.88;;
22713;SDS011;11524;50.846;4.326;2023-06-14T03:41:55;9.02;;;6.75;;
22713;SDS011;11524;50.846;4.326;2023-06-14T03:44:21;7.60;;;6.55;;
22713;SDS011;11524;50.846;4.326;2023-06-14T03:46:46;11.43;;;6.38;;
22713;SDS011;11524;50.846;4.326;2023-06-14T03:49:12;8.85;;;6.47;;
22713;SDS011;11524;50.846;4.326;2023-06-14T03:51:38;8.00;;;6.30;;
22713;SDS011;11524;50.846;4.326;2023-06-14T03:54:05;7.00;;;6.30;;
22713;SDS011;11524;50.846;4.326;2023-06-14T03:56:31;9.43;;;6.60;;
22713;SDS011;11524;50.846;4.326;2023-06-14T03:58:57;7.57;;;6.85;;
22713;SDS011;11524;50.846;4.326;2023-06-14T04:01:22;7.32;;;6.00;;
22713;SDS011;11524;50.846;4.326;2023-06-14T04:03:54;7.47;;;6.20;;
22713;SDS011;11524;50.846;4.326;2023-06-14T04:06:21;10.10;;;6.55;;
22713;SDS011;11524;50.846;4.326;2023-06-14T04:08:47;7.80;;;6.30;;
22713;SDS011;11524;50.846;4.326;2023-06-14T04:11:14;10.38;;;6.57;;
22713;SDS011;11524;50.846;4.326;2023-06-14T04:13:40;7.07;;;5.95;;
22713;SDS011;11524;50.846;4.326;2023-06-14T04:16:06;9.23;;;6.45;;
22713;SDS011;11524;50.846;4.326;2023-06-14T04:18:31;11.35;;;6.88;;
22713;SDS011;11524;50.846;4.326;2023-06-14T04:20:57;8.00;;;6.00;;
22713;SDS011;11524;50.846;4.326;2023-06-14T04:23:22;7.53;;;6.18;;
22713;SDS011;11524;50.846;4.326;2023-06-14T04:25:49;8.80;;;6.90;;
22713;SDS011;11524;50.846;4.326;2023-06-14T04:28:15;10.95;;;6.97;;
22713;SDS011;11524;50.846;4.326;2023-06-14T04:30:41;14.10;;;8.73;;
22713;SDS011;11524;50.846;4.326;2023-06-14T04:33:07;11.98;;;8.20;;
22713;SDS011;11524;50.846;4.326;2023-06-14T04:35:34;14.68;;;7.30;;
22713;SDS011;11524;50.846;4.326;2023-06-14T04:38:01;10.32;;;7.35;;
22713;SDS011;11524;50.846;4.326;2023-06-14T04:40:29;13.65;;;7.18;;
22713;SDS011;11524;50.846;4.326;2023-06-14T04:42:55;10.93;;;7.38;;
22713;SDS011;11524;50.846;4.326;2023-06-14T04:45:22;10.10;;;6.85;;
22713;SDS011;11524;50.846;4.326;2023-06-14T04:47:48;14.45;;;7.60;;
22713;SDS011;11524;50.846;4.326;2023-06-14T04:50:15;13.55;;;7.10;;
22713;SDS011;11524;50.846;4.326;2023-06-14T04:52:41;10.18;;;7.63;;
22713;SDS011;11524;50.846;4.326;2023-06-14T04:55:07;12.05;;;8.35;;
22713;SDS011;11524;50.846;4.326;2023-06-14T04:57:33;12.77;;;8.65;;
22713;SDS011;11524;50.846;4.326;2023-06-14T05:00:00;14.93;;;8.70;;
22713;SDS011;11524;50.846;4.326;2023-06-14T05:02:25;12.38;;;9.18;;
22713;SDS011;11524;50.846;4.326;2023-06-14T05:04:52;15.88;;;9.07;;
22713;SDS011;11524;50.846;4.326;2023-06-14T05:07:19;11.77;;;8.60;;
22713;SDS011;11524;50.846;4.326;2023-06-14T05:09:45;9.73;;;7.55;;
22713;SDS011;11524;50.846;4.326;2023-06-14T05:12:10;13.80;;;8.45;;
22713;SDS011;11524;50.846;4.326;2023-06-14T05:14:36;13.00;;;8.23;;
22713;SDS011;11524;50.846;4.326;2023-06-14T05:17:02;13.85;;;8.15;;
22713;SDS011;11524;50.846;4.326;2023-06-14T05:19:28;10.45;;;7.80;;
22713;SDS011;11524;50.846;4.326;2023-06-14T05:21:53;11.20;;;9.38;;
22713;SDS011;11524;50.846;4.326;2023-06-14T05:24:19;10.98;;;8.02;;
22713;SDS011;11524;50.846;4.326;2023-06-14T05:26:46;11.65;;;7.68;;
22713;SDS011;11524;50.846;4.326;2023-06-14T05:29:11;11.25;;;8.38;;
22713;SDS011;11524;50.846;4.326;2023-06-14T05:31:40;14.02;;;8.63;;
22713;SDS011;11524;50.846;4.326;2023-06-14T05:34:05;14.93;;;8.20;;
22713;SDS011;11524;50.846;4.326;2023-06-14T05:36:31;12.57;;;8.20;;
22713;SDS011;11524;50.846;4.326;2023-06-14T05:38:57;17.05;;;8.45;;
22713;SDS011;11524;50.846;4.326;2023-06-14T05:41:27;16.90;;;8.57;;
22713;SDS011;11524;50.846;4.326;2023-06-14T05:43:53;14.38;;;9.43;;
22713;SDS011;11524;50.846;4.326;2023-06-14T05:46:20;12.57;;;9.35;;
22713;SDS011;11524;50.846;4.326;2023-06-14T05:48:47;13.57;;;8.60;;
22713;SDS011;11524;50.846;4.326;2023-06-14T05:51:13;14.88;;;9.05;;
22713;SDS011;11524;50.846;4.326;2023-06-14T05:53:39;11.88;;;8.90;;
22713;SDS011;11524;50.846;4.326;2023-06-14T05:56:05;15.50;;;8.98;;
22713;SDS011;11524;50.846;4.326;2023-06-14T05:58:31;10.88;;;8.63;;
22713;SDS011;11524;50.846;4.326;2023-06-14T06:00:56;15.25;;;8.63;;
22713;SDS011;11524;50.846;4.326;2023-06-14T06:03:22;13.13;;;8.93;;
22713;SDS011;11524;50.846;4.326;2023-06-14T06:05:48;14.55;;;8.88;;
22713;SDS011;11524;50.846;4.326;2023-06-14T06:08:13;15.90;;;8.20;;
22713;SDS011;11524;50.846;4.326;2023-06-14T06:10:41;17.52;;;8.75;;
22713;SDS011;11524;50.846;4.326;2023-06-14T06:13:07;15.15;;;8.40;;
22713;SDS011;11524;50.846;4.326;2023-06-14T06:15:32;14.32;;;8.52;;
22713;SDS011;11524;50.846;4.326;2023-06-14T06:17:58;12.73;;;8.07;;
22713;SDS011;11524;50.846;4.326;2023-06-14T06:20:24;12.52;;;8.18;;
22713;SDS011;11524;50.846;4.326;2023-06-14T06:22:59;11.77;;;8.23;;
22713;SDS011;11524;50.846;4.326;2023-06-14T06:25:26;17.25;;;8.32;;
22713;SDS011;11524;50.846;4.326;2023-06-14T06:27:52;14.00;;;8.05;;
22713;SDS011;11524;50.846;4.326;2023-06-14T06:30:19;17.65;;;8.25;;
22713;SDS011;11524;50.846;4.326;2023-06-14T06:32:48;15.48;;;8.63;;
22713;SDS011;11524;50.846;4.326;2023-06-14T06:35:14;10.75;;;7.10;;
22713;SDS011;11524;50.846;4.326;2023-06-14T06:37:41;12.68;;;6.88;;
22713;SDS011;11524;50.846;4.326;2023-06-14T06:40:07;13.00;;;7.35;;
22713;SDS011;11524;50.846;4.326;2023-06-14T06:42:33;16.45;;;7.10;;
22713;SDS011;11524;50.846;4.326;2023-06-14T06:44:59;11.13;;;7.10;;
22713;SDS011;11524;50.846;4.326;2023-06-14T06:47:25;12.10;;;7.07;;
22713;SDS011;11524;50.846;4.326;2023-06-14T06:49:51;13.90;;;7.05;;
22713;SDS011;11524;50.846;4.326;2023-06-14T06:52:17;13.32;;;6.70;;
22713;SDS011;11524;50.846;4.326;2023-06-14T06:54:42;16.15;;;7.20;;
22713;SDS011;11524;50.846;4.326;2023-06-14T06:57:08;11.85;;;7.05;;
22713;SDS011;11524;50.846;4.326;2023-06-14T06:59:35;11.93;;;7.30;;
22713;SDS011;11524;50.846;4.326;2023-06-14T07:02:01;8.88;;;6.55;;
22713;SDS011;11524;50.846;4.326;2023-06-14T07:04:27;8.77;;;6.75;;
22713;SDS011;11524;50.846;4.326;2023-06-14T07:06:52;10.65;;;6.75;;
22713;SDS011;11524;50.846;4.326;2023-06-14T07:09:18;7.93;;;7.00;;
22713;SDS011;11524;50.846;4.326;2023-06-14T07:11:46;8.85;;;6.45;;
22713;SDS011;11524;50.846;4.326;2023-06-14T07:14:12;8.73;;;7.13;;
22713;SDS011;11524;50.846;4.326;2023-06-14T07:16:40;9.85;;;6.90;;
22713;SDS011;11524;50.846;4.326;2023-06-14T07:19:06;9.60;;;6.63;;
22713;SDS011;11524;50.846;4.326;2023-06-14T07:21:32;13.10;;;7.25;;
22713;SDS011;11524;50.846;4.326;2023-06-14T07:23:57;12.63;;;6.55;;
22713;SDS011;11524;50.846;4.326;2023-06-14T07:26:23;9.68;;;7.00;;
22713;SDS011;11524;50.846;4.326;2023-06-14T07:28:49;9.18;;;6.65;;
22713;SDS011;11524;50.846;4.326;2023-06-14T07:31:14;10.65;;;6.78;;
22713;SDS011;11524;50.846;4.326;2023-06-14T07:33:41;11.60;;;7.07;;
22713;SDS011;11524;50.846;4.326;2023-06-14T07:36:07;10.15;;;6.93;;
22713;SDS011;11524;50.846;4.326;2023-06-14T07:38:42;12.43;;;7.45;;
22713;SDS011;11524;50.846;4.326;2023-06-14T07:41:07;8.50;;;6.50;;
22713;SDS011;11524;50.846;4.326;2023-06-14T07:43:33;10.32;;;6.35;;
22713;SDS011;11524;50.846;4.326;2023-06-14T07:45:59;11.30;;;7.32;;
22713;SDS011;11524;50.846;4.326;2023-06-14T07:48:25;11.05;;;6.82;;
22713;SDS011;11524;50.846;4.326;2023-06-14T07:50:50;9.93;;;6.80;;
22713;SDS011;11524;50.846;4.326;2023-06-14T07:53:19;8.18;;;6.63;;
22713;SDS011;11524;50.846;4.326;2023-06-14T07:55:44;10.30;;;6.65;;
22713;SDS011;11524;50.846;4.326;2023-06-14T07:58:12;11.95;;;6.95;;
22713;SDS011;11524;50.846;4.326;2023-06-14T08:00:41;10.88;;;6.40;;
22713;SDS011;11524;50.846;4.326;2023-06-14T08:03:06;10.32;;;6.60;;
22713;SDS011;11524;50.846;4.326;2023-06-14T08:05:52;10.88;;;6.53;;
22713;SDS011;11524;50.846;4.326;2023-06-14T08:08:17;10.90;;;6.70;;
22713;SDS011;11524;50.846;4.326;2023-06-14T08:10:43;8.13;;;6.47;;
22713;SDS011;11524;50.846;4.326;2023-06-14T08:13:09;10.40;;;5.90;;
22713;SDS011;11524;50.846;4.326;2023-06-14T08:15:35;9.45;;;6.85;;
22713;SDS011;11524;50.846;4.326;2023-06-14T08:18:03;11.23;;;6.75;;
22713;SDS011;11524;50.846;4.326;2023-06-14T08:20:29;9.85;;;6.22;;
22713;SDS011;11524;50.846;4.326;2023-06-14T08:22:56;8.32;;;6.25;;
22713;SDS011;11524;50.846;4.326;2023-06-14T08:25:24;9.93;;;6.50;;
22713;SDS011;11524;50.846;4.326;2023-06-14T08:27:49;9.63;;;6.65;;
22713;SDS011;11524;50.846;4.326;2023-06-14T08:30:15;9.90;;;6.55;;
22713;SDS011;11524;50.846;4.326;2023-06-14T08:32:42;10.43;;;6.75;;
22713;SDS011;11524;50.846;4.326;2023-06-14T08:35:08;12.60;;;7.28;;
22713;SDS011;11524;50.846;4.326;2023-06-14T08:37:37;10.57;;;7.15;;
22713;SDS011;11524;50.846;4.326;2023-06-14T08:43:01;7.72;;;6.85;;
22713;SDS011;11524;50.846;4.326;2023-06-14T08:45:27;7.85;;;6.82;;
22713;SDS011;11524;50.846;4.326;2023-06-14T08:47:53;8.35;;;6.28;;
22713;SDS011;11524;50.846;4.326;2023-06-14T08:50:22;9.65;;;6.55;;
22713;SDS011;11524;50.846;4.326;2023-06-14T08:52:59;8.65;;;6.47;;
22713;SDS011;11524;50.846;4.326;2023-06-14T08:55:27;10.23;;;5.75;;
22713;SDS011;11524;50.846;4.326;2023-06-14T08:57:57;8.77;;;6.13;;
22713;SDS011;11524;50.846;4.326;2023-06-14T09:00:26;11.10;;;6.20;;
22713;SDS011;11524;50.846;4.326;2023-06-14T09:02:53;7.50;;;6.47;;
22713;SDS011;11524;50.846;4.326;2023-06-14T09:05:25;8.68;;;6.30;;
22713;SDS011;11524;50.846;4.326;2023-06-14T09:07:51;9.88;;;5.88;;
22713;SDS011;11524;50.846;4.326;2023-06-14T09:10:17;8.25;;;5.63;;
22713;SDS011;11524;50.846;4.326;2023-06-14T09:12:43;7.63;;;5.72;;
22713;SDS011;11524;50.846;4.326;2023-06-14T09:15:09;7.75;;;5.97;;
22713;SDS011;11524;50.846;4.326;2023-06-14T09:17:39;7.75;;;5.72;;
22713;SDS011;11524;50.846;4.326;2023-06-14T09:20:06;8.52;;;6.03;;
22713;SDS011;11524;50.846;4.326;2023-06-14T09:22:41;8.03;;;5.80;;
22713;SDS011;11524;50.846;4.326;2023-06-14T09:25:07;10.18;;;5.97;;
22713;SDS011;11524;50.846;4.326;2023-06-14T09:27:32;8.13;;;5.57;;
22713;SDS011;11524;50.846;4.326;2023-06-14T09:29:58;8.50;;;5.80;;
22713;SDS011;11524;50.846;4.326;2023-06-14T09:32:24;6.25;;;5.53;;
22713;SDS011;11524;50.846;4.326;2023-06-14T09:34:50;8.00;;;5.93;;
22713;SDS011;11524;50.846;4.326;2023-06-14T09:37:29;6.60;;;5.65;;
22713;SDS011;11524;50.846;4.326;2023-06-14T09:39:56;7.20;;;5.43;;
22713;SDS011;11524;50.846;4.326;2023-06-14T09:42:22;10.30;;;5.43;;
22713;SDS011;11524;50.846;4.326;2023-06-14T09:44:54;6.43;;;5.50;;
22713;SDS011;11524;50.846;4.326;2023-06-14T09:47:21;6.40;;;5.63;;
22713;SDS011;11524;50.846;4.326;2023-06-14T09:49:51;7.68;;;5.32;;
22713;SDS011;11524;50.846;4.326;2023-06-14T09:52:22;6.38;;;5.60;;
22713;SDS011;11524;50.846;4.326;2023-06-14T09:54:49;6.28;;;5.10;;
22713;SDS011;11524;50.846;4.326;2023-06-14T09:57:16;8.10;;;5.25;;
22713;SDS011;11524;50.846;4.326;2023-06-14T09:59:46;7.55;;;5.65;;
22713;SDS011;11524;50.846;4.326;2023-06-14T10:02:20;7.03;;;5.43;;
22713;SDS011;11524;50.846;4.326;2023-06-14T10:10:06;6.60;;;5.28;;
22713;SDS011;11524;50.846;4.326;2023-06-14T10:12:32;6.40;;;4.90;;
22713;SDS011;11524;50.846;4.326;2023-06-14T10:14:58;6.50;;;4.95;;
22713;SDS011;11524;50.846;4.326;2023-06-14T10:17:27;6.03;;;5.25;;
22713;SDS011;11524;50.846;4.326;2023-06-14T10:20:35;5.97;;;5.38;;
22713;SDS011;11524;50.846;4.326;2023-06-14T10:23:16;6.28;;;5.00;;
22713;SDS011;11524;50.846;4.326;2023-06-14T10:25:49;11.55;;;5.68;;
22713;SDS011;11524;50.846;4.326;2023-06-14T10:28:19;8.73;;;4.90;;
22713;SDS011;11524;50.846;4.326;2023-06-14T10:33:34;8.43;;;5.35;;
22713;SDS011;11524;50.846;4.326;2023-06-14T10:36:25;9.18;;;5.05;;
22713;SDS011;11524;50.846;4.326;2023-06-14T10:41:37;10.27;;;5.18;;
22713;SDS011;11524;50.846;4.326;2023-06-14T10:46:38;5.95;;;4.90;;
22713;SDS011;11524;50.846;4.326;2023-06-14T10:49:05;6.20;;;4.63;;
22713;SDS011;11524;50.846;4.326;2023-06-14T10:51:53;5.93;;;5.13;;
22713;SDS011;11524;50.846;4.326;2023-06-14T10:54:21;6.20;;;5.10;;
22713;SDS011;11524;50.846;4.326;2023-06-14T10:56:47;9.57;;;4.85;;
22713;SDS011;11524;50.846;4.326;2023-06-14T10:59:17;7.25;;;5.15;;
22713;SDS011;11524;50.846;4.326;2023-06-14T11:04:20;5.63;;;5.10;;
22713;SDS011;11524;50.846;4.326;2023-06-14T11:06:50;6.70;;;4.78;;
22713;SDS011;11524;50.846;4.326;2023-06-14T11:12:16;7.20;;;4.80;;
22713;SDS011;11524;50.846;4.326;2023-06-14T11:14:45;6.55;;;4.68;;
22713;SDS011;11524;50.846;4.326;2023-06-14T11:17:12;6.43;;;4.65;;
22713;SDS011;11524;50.846;4.326;2023-06-14T11:19:47;9.65;;;5.07;;
22713;SDS011;11524;50.846;4.326;2023-06-14T11:22:12;7.00;;;4.82;;
22713;SDS011;11524;50.846;4.326;2023-06-14T11:24:40;7.60;;;4.80;;
22713;SDS011;11524;50.846;4.326;2023-06-14T11:27:05;7.10;;;4.70;;
22713;SDS011;11524;50.846;4.326;2023-06-14T11:29:31;5.97;;;4.88;;
22713;SDS011;11524;50.846;4.326;2023-06-14T11:32:07;6.10;;;4.93;;
22713;SDS011;11524;50.846;4.326;2023-06-14T11:34:37;6.88;;;4.50;;
22713;SDS011;11524;50.846;4.326;2023-06-14T11:37:02;6.95;;;4.90;;
22713;SDS011;11524;50.846;4.326;2023-06-14T11:39:28;5.82;;;4.57;;
22713;SDS011;11524;50.846;4.326;2023-06-14T11:41:54;4.80;;;4.25;;
22713;SDS011;11524;50.846;4.326;2023-06-14T11:44:20;6.25;;;4.72;;
22713;SDS011;11524;50.846;4.326;2023-06-14T11:46:45;6.70;;;4.63;;
22713;SDS011;11524;50.846;4.326;2023-06-14T11:49:14;4.90;;;4.40;;
22713;SDS011;11524;50.846;4.326;2023-06-14T11:51:40;4.70;;;4.07;;
22713;SDS011;11524;50.846;4.326;2023-06-14T11:54:08;6.32;;;4.43;;
22713;SDS011;11524;50.846;4.326;2023-06-14T11:56:33;7.72;;;4.80;;
22713;SDS011;11524;50.846;4.326;2023-06-14T11:58:59;8.38;;;4.75;;
22713;SDS011;11524;50.846;4.326;2023-06-14T12:01:29;6.50;;;4.78;;
22713;SDS011;11524;50.846;4.326;2023-06-14T12:03:56;5.63;;;4.30;;
22713;SDS011;11524;50.846;4.326;2023-06-14T12:06:26;6.75;;;4.70;;
22713;SDS011;11524;50.846;4.326;2023-06-14T12:08:58;6.15;;;4.88;;
22713;SDS011;11524;50.846;4.326;2023-06-14T12:11:28;8.57;;;4.63;;
22713;SDS011;11524;50.846;4.326;2023-06-14T12:14:06;6.05;;;4.63;;
22713;SDS011;11524;50.846;4.326;2023-06-14T12:16:34;5.65;;;4.78;;
22713;SDS011;11524;50.846;4.326;2023-06-14T12:19:11;7.22;;;4.80;;
22713;SDS011;11524;50.846;4.326;2023-06-14T12:21:38;4.97;;;4.43;;
22713;SDS011;11524;50.846;4.326;2023-06-14T12:24:07;5.07;;;4.28;;
22713;SDS011;11524;50.846;4.326;2023-06-14T12:26:33;4.68;;;4.18;;
22713;SDS011;11524;50.846;4.326;2023-06-14T12:29:01;6.45;;;4.78;;
22713;SDS011;11524;50.846;4.326;2023-06-14T12:31:29;5.75;;;4.55;;
22713;SDS011;11524;50.846;4.326;2023-06-14T12:33:55;7.05;;;4.25;;
22713;SDS011;11524;50.846;4.326;2023-06-14T12:36:20;6.32;;;5.00;;
22713;SDS011;11524;50.846;4.326;2023-06-14T12:38:46;5.90;;;4.57;;
22713;SDS011;11524;50.846;4.326;2023-06-14T12:41:12;5.32;;;4.50;;
22713;SDS011;11524;50.846;4.326;2023-06-14T12:43:39;5.63;;;4.55;;
22713;SDS011;11524;50.846;4.326;2023-06-14T12:46:05;6.25;;;4.13;;
22713;SDS011;11524;50.846;4.326;2023-06-14T12:48:31;7.45;;;4.22;;
22713;SDS011;11524;50.846;4.326;2023-06-14T12:50:57;5.18;;;4.30;;
22713;SDS011;11524;50.846;4.326;2023-06-14T12:56:45;5.32;;;4.30;;
22713;SDS011;11524;50.846;4.326;2023-06-14T12:59:10;8.68;;;4.45;;
22713;SDS011;11524;50.846;4.326;2023-06-14T13:01:37;5.47;;;3.80;;
22713;SDS011;11524;50.846;4.326;2023-06-14T13:04:03;4.70;;;4.10;;
22713;SDS011;11524;50.846;4.326;2023-06-14T13:06:29;5.05;;;4.15;;
22713;SDS011;11524;50.846;4.326;2023-06-14T13:08:56;7.43;;;4.25;;
22713;SDS011;11524;50.846;4.326;2023-06-14T13:11:23;4.13;;;3.72;;
22713;SDS011;11524;50.846;4.326;2023-06-14T13:13:49;6.72;;;4.38;;
22713;SDS011;11524;50.846;4.326;2023-06-14T13:16:15;4.18;;;3.78;;
22713;SDS011;11524;50.846;4.326;2023-06-14T13:18:40;6.25;;;4.28;;
22713;SDS011;11524;50.846;4.326;2023-06-14T13:21:09;6.13;;;4.40;;
22713;SDS011;11524;50.846;4.326;2023-06-14T13:23:37;4.63;;;4.00;;
22713;SDS011;11524;50.846;4.326;2023-06-14T13:26:03;8.35;;;4.57;;
22713;SDS011;11524;50.846;4.326;2023-06-14T13:28:28;4.32;;;3.75;;
22713;SDS011;11524;50.846;4.326;2023-06-14T13:30:56;5.88;;;3.83;;
22713;SDS011;11524;50.846;4.326;2023-06-14T13:33:22;5.10;;;3.72;;
22713;SDS011;11524;50.846;4.326;2023-06-14T13:35:49;5.72;;;3.55;;
22713;SDS011;11524;50.846;4.326;2023-06-14T13:38:17;5.45;;;4.28;;
22713;SDS011;11524;50.846;4.326;2023-06-14T13:40:42;4.90;;;4.20;;
22713;SDS011;11524;50.846;4.326;2023-06-14T13:43:09;5.38;;;3.97;;
22713;SDS011;11524;50.846;4.326;2023-06-14T13:45:35;5.28;;;3.97;;
22713;SDS011;11524;50.846;4.326;2023-06-14T13:48:00;5.40;;;3.80;;
22713;SDS011;11524;50.846;4.326;2023-06-14T13:50:26;5.00;;;3.95;;
22713;SDS011;11524;50.846;4.326;2023-06-14T13:52:52;5.82;;;4.10;;
22713;SDS011;11524;50.846;4.326;2023-06-14T13:55:18;5.45;;;3.60;;
22713;SDS011;11524;50.846;4.326;2023-06-14T13:57:43;6.00;;;3.67;;
22713;SDS011;11524;50.846;4.326;2023-06-14T14:00:10;8.27;;;4.07;;
22713;SDS011;11524;50.846;4.326;2023-06-14T14:02:36;6.88;;;3.85;;
22713;SDS011;11524;50.846;4.326;2023-06-14T14:05:02;7.45;;;4.03;;
22713;SDS011;11524;50.846;4.326;2023-06-14T14:07:31;5.85;;;3.63;;
22713;SDS011;11524;50.846;4.326;2023-06-14T14:10:01;6.72;;;4.00;;
22713;SDS011;11524;50.846;4.326;2023-06-14T14:12:27;6.05;;;4.05;;
22713;SDS011;11524;50.846;4.326;2023-06-14T14:14:53;9.40;;;4.03;;
22713;SDS011;11524;50.846;4.326;2023-06-14T14:17:21;8.27;;;4.00;;
22713;SDS011;11524;50.846;4.326;2023-06-14T14:19:48;8.65;;;4.22;;
22713;SDS011;11524;50.846;4.326;2023-06-14T14:22:13;8.77;;;4.13;;
22713;SDS011;11524;50.846;4.326;2023-06-14T14:24:39;8.32;;;4.07;;
22713;SDS011;11524;50.846;4.326;2023-06-14T14:27:12;5.43;;;3.97;;
22713;SDS011;11524;50.846;4.326;2023-06-14T14:29:46;4.82;;;4.10;;
22713;SDS011;11524;50.846;4.326;2023-06-14T14:32:12;7.25;;;3.88;;
22713;SDS011;11524;50.846;4.326;2023-06-14T14:34:39;4.00;;;3.60;;
22713;SDS011;11524;50.846;4.326;2023-06-14T14:37:10;9.13;;;4.28;;
22713;SDS011;11524;50.846;4.326;2023-06-14T14:39:36;5.78;;;3.35;;
22713;SDS011;11524;50.846;4.326;2023-06-14T14:42:02;5.63;;;3.83;;
22713;SDS011;11524;50.846;4.326;2023-06-14T14:44:27;5.18;;;3.63;;
22713;SDS011;11524;50.846;4.326;2023-06-14T14:46:53;5.45;;;3.55;;
22713;SDS011;11524;50.846;4.326;2023-06-14T14:49:20;4.13;;;3.40;;
22713;SDS011;11524;50.846;4.326;2023-06-14T14:51:46;5.82;;;3.80;;
22713;SDS011;11524;50.846;4.326;2023-06-14T14:54:12;6.25;;;3.22;;
22713;SDS011;11524;50.846;4.326;2023-06-14T14:56:46;7.63;;;3.35;;
22713;SDS011;11524;50.846;4.326;2023-06-14T14:59:11;5.03;;;3.45;;
22713;SDS011;11524;50.846;4.326;2023-06-14T15:01:37;5.25;;;3.53;;
22713;SDS011;11524;50.846;4.326;2023-06-14T15:04:03;6.00;;;3.70;;
22713;SDS011;11524;50.846;4.326;2023-06-14T15:06:29;6.07;;;3.55;;
22713;SDS011;11524;50.846;4.326;2023-06-14T15:08:55;5.53;;;3.03;;
22713;SDS011;11524;50.846;4.326;2023-06-14T15:11:22;5.85;;;3.33;;
22713;SDS011;11524;50.846;4.326;2023-06-14T15:13:47;4.70;;;3.63;;